MFDO2: Hudson Lake

Data processed at Wed 22Sep2021 02:13


All information presented herein is the property of the government of the United States of America and may be revised or deleted at any time without prior notice.
Dissemination of this information without the expressed written consent of the Public Affairs Office, Tulsa District U.S. Army Corps of Engineers is strictly prohibited.
These data are gathered electronically and, as presented, have not undergone any form of quality control. These data are not guaranteed to be valid or correct.
Go to home page.
Go to station list.

Upstream stations:

Downstream station:
Previous Day
Next Day
Current Day
    
SHEF ID:       MFDO2     Lake Hudson
STATION TYPE:  RESERVOIR
Flood Pool:  Bottom =   619.00, Top =   636.00

               PRECIP ELEVATION   STORAGE   TW-ELEV    INFLOW   RELEASE  AIR-TEMP  WIND-DIRWIND-SPEED REL-HUMID SOLAR-RAD   VOLTAGE  BAT-LOAD
                   in        ft     ac-ft        ft       cfs       cfs         F       deg       mph         %      W/m2      volt      volt
              Ccp-Rev   Ccp-Rev   Ccp-Rev   Ccp-Rev  Rev-Regi  Rev-Regi   Ccp-Rev   Ccp-Rev   Ccp-Rev   Ccp-Rev   Ccp-Rev   Ccp-Rev   Ccp-Rev
(US/Central)
09/21 00:00      0.04    620.39    215742    561.04      5205        93     79.11    323.20      8.40     76.79      0.00     13.16     12.81
09/21 01:00      0.00    620.33    215059    560.84      4153        93     75.52    330.60      7.90     80.93      0.00     13.16     12.81
09/21 02:00      0.00    620.30    214717    560.64      3929        93     72.57    350.80      7.60     74.13      0.00     13.16     12.81
09/21 03:00      0.00    620.32    214945    560.51       125        93     70.07    334.50      9.60     70.39      0.00     13.15     12.81
09/21 04:00      0.00    620.36    215400    560.35      2062        93     66.47    339.50     11.50     78.27      0.00     13.15     12.81
09/21 05:00      0.03    620.17    213236    560.24      2013        92     64.58      2.30     10.70     88.19      0.00     13.16     12.81
09/21 06:00      0.00    620.16    213122    560.14      3170        92     64.15     11.60     10.50     88.50      0.00     13.16     12.81
09/21 07:00      0.00    620.14    212895    560.07      3245        92     64.44    354.10      8.80     84.89      0.00     13.16     12.81
09/21 08:00      0.00    620.19    213464    560.00      3332        92     64.58    352.60      8.90     81.43     15.30     13.16     12.81
09/21 09:00      0.00    620.16    213122    559.93      1618        92     64.54      3.40      9.40     81.12     70.90     13.16     12.81
09/21 10:00      0.00    620.16    213122    559.88      1792      2522     64.81    344.90      8.10     78.42    126.30     13.14     12.81
09/21 11:00      0.00    620.15    213008    560.70      1013      4952     64.78    340.40      7.30     76.49    147.90     13.16     12.81
09/21 12:00      0.00    620.12    212667    561.41      1152      4952     66.69    359.10      9.10     70.03    486.80     13.16     12.81
09/21 13:00      0.00    620.10    212439    561.83      1405      1172     69.44    346.70      8.30     60.73    587.90     13.11     12.81
09/21 14:00      0.00    620.10    212439    561.42      1547        92     72.01    340.80      8.90     52.05    417.90     13.11     12.81
09/21 15:00      0.00    620.13    212781    561.17      1445        92     73.27    356.10     10.00     47.80    275.10     13.16     12.81
09/21 16:00      0.00    620.07    212097    560.92      1090        92     74.16    358.40     10.00     41.87    128.10     13.11     12.81
09/21 17:00      0.00    620.07    212097    560.72       863      1442     75.40    349.50     10.00     35.03    211.30     13.10     12.81
09/21 18:00      0.00    620.02    211528    560.95       508      8192     75.58    349.00      9.60     34.12     41.50     13.14     12.81
09/21 19:00      0.00    620.01    211414    562.51       324      8192     74.61    340.10      8.60     31.63     50.20     13.16     12.81
09/21 20:00      0.00    620.00    211300    563.14       252      8192     72.03      8.30      6.70     39.86      0.30     13.16     12.81
09/21 21:00      0.00    620.00    211300    563.60       539      8192     70.18      4.60      4.70     43.61      0.00     13.12     12.81
09/21 22:00      ----      ----      ----      ----      ----      ----      ----      ----      ----      ----      ----      ----      ----
09/21 23:00      ----      ----      ----      ----      ----      ----      ----      ----      ----      ----      ----      ----      ----